createdAt,value
2023-01-03T00:04:49.439Z,-45.29515
2023-01-03T00:09:51.002Z,-45.34742
2023-01-03T00:14:51.959Z,-46.63974
2023-01-03T00:19:52.933Z,-46.63682
2023-01-03T00:24:53.939Z,-46.68117
2023-01-03T00:29:54.883Z,-47.0559
2023-01-03T00:34:59.010Z,-48.64026
2023-01-03T00:40:04.129Z,-49.52342
2023-01-03T00:45:05.168Z,-49.41999
2023-01-03T00:50:06.117Z,-50.3093
2023-01-03T00:55:07.032Z,-50.3487
2023-01-03T01:00:08.037Z,-51.00171
2023-01-03T01:05:08.974Z,-51.50122
2023-01-03T01:10:09.953Z,-51.51002
2023-01-03T01:15:10.821Z,-53.12165
2023-01-03T01:20:11.780Z,-53.68323
2023-01-03T01:25:12.716Z,-54.66708
2023-01-03T01:30:13.622Z,-56.10407
2023-01-03T01:35:14.517Z,-56.5023
2023-01-03T01:40:15.519Z,-57.3176
2023-01-03T01:45:16.383Z,-57.66813
2023-01-03T01:50:17.332Z,-58.3585
2023-01-03T01:55:18.298Z,-58.94008
2023-01-03T02:00:19.291Z,-58.9045
2023-01-03T02:05:20.231Z,-58.9114
2023-01-03T02:10:21.314Z,-59.2828
2023-01-03T02:15:22.229Z,-59.98581
2023-01-03T02:20:23.168Z,-61.23567
2023-01-03T02:25:24.172Z,-61.81798
2023-01-03T02:30:25.158Z,-62.43019
2023-01-03T02:35:26.240Z,-63.07683
2023-01-03T02:40:27.466Z,-63.68626
2023-01-03T02:45:28.370Z,-64.36348
2023-01-03T02:50:29.306Z,-64.39744
2023-01-03T02:55:30.247Z,-64.6928
2023-01-03T03:00:31.203Z,-65.2464
2023-01-03T03:05:32.112Z,-65.41154
2023-01-03T03:10:33.146Z,-66.33133
2023-01-03T03:15:34.054Z,-66.13497
2023-01-03T03:20:35.062Z,-66.40965
2023-01-03T03:25:36.197Z,-66.56233
2023-01-03T03:30:37.201Z,-67.22433
2023-01-03T03:35:38.147Z,-67.97032
2023-01-03T03:40:39.094Z,-67.29221
2023-01-03T03:45:40.054Z,-68.59878
2023-01-03T03:50:40.984Z,-68.86006
2023-01-03T03:55:41.912Z,-69.4939
2023-01-03T04:00:42.808Z,-69.99225
2023-01-03T04:05:43.732Z,-70.72351
2023-01-03T04:10:44.675Z,-71.35181
2023-01-03T04:15:45.599Z,-71.69415
2023-01-03T04:20:46.537Z,-72.12178
2023-01-03T04:25:47.511Z,-73.08036
2023-01-03T04:30:48.408Z,-73.12477
2023-01-03T04:35:49.317Z,-74.1695
2023-01-03T04:40:50.331Z,-74.72328
2023-01-03T04:45:51.310Z,-75.46132
2023-01-03T04:50:52.298Z,-75.40786
2023-01-03T04:55:53.220Z,-75.87577
2023-01-03T05:00:54.232Z,-76.07824
2023-01-03T05:05:55.236Z,-76.62761
2023-01-03T05:10:56.159Z,-77.33208
2023-01-03T05:15:57.097Z,-77.7373
2023-01-03T05:20:58.037Z,-78.22094
2023-01-03T05:25:58.935Z,-78.38674
2023-01-03T05:30:59.899Z,-78.72136
2023-01-03T05:36:00.798Z,-79.2003
2023-01-03T05:41:01.890Z,-79.42662
2023-01-03T05:46:02.962Z,-79.47345
2023-01-03T05:51:04.066Z,-80.02442
2023-01-03T05:56:04.982Z,-80.92745
2023-01-03T06:01:05.982Z,-81.24008
2023-01-03T06:06:06.987Z,-81.31438
2023-01-03T06:11:07.975Z,-82.10999
2023-01-03T06:16:09.105Z,-82.51298
2023-01-03T06:21:10.206Z,-82.64814
2023-01-03T06:26:11.241Z,-83.23699
2023-01-03T06:31:12.323Z,-83.50588
2023-01-03T06:36:13.348Z,-84.03547
2023-01-03T06:41:14.367Z,-84.68272
2023-01-03T06:46:15.480Z,-85.10458
2023-01-03T06:51:16.461Z,-85.14933
2023-01-03T06:56:17.364Z,-85.28066
2023-01-03T07:01:18.430Z,-86.46868
2023-01-03T07:06:19.383Z,-86.99137
2023-01-03T07:11:20.298Z,-87.02983
2023-01-03T07:16:21.309Z,-87.77725
2023-01-03T07:21:22.261Z,-88.33328
2023-01-03T07:26:23.189Z,-88.52928
2023-01-03T07:31:24.246Z,-88.59615
2023-01-03T07:36:25.223Z,-89.19632
2023-01-03T07:41:26.446Z,-89.24546
2023-01-03T07:46:27.721Z,-89.89701
2023-01-03T07:51:28.636Z,-90.51244
2023-01-03T07:56:29.557Z,-90.45165
2023-01-03T08:01:30.759Z,-90.82294
2023-01-03T08:06:31.907Z,-91.21683
2023-01-03T08:11:32.909Z,-91.46037
2023-01-03T08:16:33.856Z,-92.36317
2023-01-03T08:21:34.789Z,-92.56657
2023-01-03T08:26:35.801Z,-93.07392
2023-01-03T08:31:36.775Z,-93.5644
2023-01-03T08:36:37.675Z,-94.19968
2023-01-03T08:41:38.661Z,-94.43275
2023-01-03T08:46:39.654Z,-94.72585
2023-01-03T08:51:40.672Z,-95.15723
2023-01-03T08:56:41.683Z,-95.13802
2023-01-03T09:01:42.810Z,-95.63651
2023-01-03T09:06:43.961Z,-95.68577
2023-01-03T09:11:44.989Z,-96.21171
2023-01-03T09:16:49.086Z,-96.93402
2023-01-03T09:21:50.642Z,-97.62858
2023-01-03T09:26:54.838Z,-97.95693
2023-01-03T09:31:56.264Z,-97.88532
2023-01-03T09:36:57.308Z,-97.50086
2023-01-03T09:41:58.340Z,-97.72148
2023-01-03T09:46:59.360Z,-97.6772
2023-01-03T09:52:00.392Z,-98.00186
2023-01-03T09:57:01.428Z,-98.35154
2023-01-03T10:02:02.496Z,-97.93962
2023-01-03T10:07:03.629Z,-97.769
2023-01-03T10:12:04.617Z,-97.51197
2023-01-03T10:17:05.692Z,-96.79268
2023-01-03T10:22:06.699Z,-96.73615
2023-01-03T10:27:07.642Z,-96.38625
2023-01-03T10:32:08.768Z,-96.92641
2023-01-03T10:37:09.748Z,-97.4728
2023-01-03T10:42:10.709Z,-96.57708
2023-01-03T10:47:11.636Z,-96.21039
2023-01-03T10:52:12.704Z,-96.19187
2023-01-03T10:57:13.892Z,-96.28903
2023-01-03T11:02:15.187Z,-96.4476
2023-01-03T11:07:16.558Z,-96.15855
2023-01-03T11:12:17.611Z,-95.77691
2023-01-03T11:17:18.573Z,-96.05937
2023-01-03T11:22:19.517Z,-96.4034
2023-01-03T11:27:20.477Z,-95.84836
2023-01-03T11:32:21.832Z,-94.9946
2023-01-03T11:37:22.979Z,-95.8667
2023-01-03T11:42:23.983Z,-95.9689
2023-01-03T11:47:24.937Z,-95.67787
2023-01-03T11:52:26.040Z,-94.90308
2023-01-03T11:57:27.289Z,-95.32679
2023-01-03T12:02:28.555Z,-95.65267
2023-01-03T12:07:48.551Z,-95.08557
2023-01-03T12:12:51.164Z,-95.19839
2023-01-03T12:17:52.140Z,-95.83865
2023-01-03T12:22:53.107Z,-95.84733
2023-01-03T12:27:54.171Z,-96.253
2023-01-03T12:32:55.301Z,-96.10553
2023-01-03T12:37:56.245Z,-96.31103
2023-01-03T12:42:57.292Z,-95.82484
2023-01-03T12:47:58.267Z,-95.02591
2023-01-03T12:52:59.215Z,-93.98009
2023-01-03T12:58:00.302Z,-94.64992
2023-01-03T13:03:01.650Z,-94.46138
2023-01-03T13:08:02.846Z,-94.97575
2023-01-03T13:13:03.904Z,-95.3864
2023-01-03T13:18:05.005Z,-94.33202
2023-01-03T13:23:05.959Z,-94.01697
2023-01-03T13:28:06.860Z,-93.13641
2023-01-03T13:33:07.804Z,-93.42769
2023-01-03T13:38:08.781Z,-93.02824
2023-01-03T13:43:09.755Z,-93.2412
2023-01-03T13:48:10.719Z,-93.44107
2023-01-03T13:53:11.679Z,-93.33511
2023-01-03T13:58:12.759Z,-93.40509
2023-01-03T14:03:13.903Z,-93.68894
2023-01-03T14:08:14.971Z,-94.31154
2023-01-03T14:13:16.099Z,-94.72262
2023-01-03T14:18:17.094Z,-94.87321
2023-01-03T14:23:57.782Z,-94.73223
2023-01-03T14:29:00.490Z,-95.29427
2023-01-03T14:34:01.497Z,-95.62421
2023-01-03T14:39:02.604Z,-96.12481
2023-01-03T14:44:03.573Z,-96.28327
2023-01-03T14:49:04.550Z,-96.23889
2023-01-03T14:54:05.528Z,-96.11171
2023-01-03T14:59:06.471Z,-95.88311
2023-01-03T15:04:07.428Z,-96.27067
2023-01-03T15:09:08.372Z,-96.05618
2023-01-03T15:14:09.399Z,-96.38372
2023-01-03T15:19:10.392Z,-96.7726
2023-01-03T15:24:11.330Z,-97.28095
2023-01-03T15:29:12.371Z,-97.42854
2023-01-03T15:34:13.422Z,-97.52656
2023-01-03T15:39:14.413Z,-97.97222
2023-01-03T15:44:15.403Z,-98.51717
2023-01-03T15:49:16.471Z,-98.77985
2023-01-03T15:54:17.459Z,-98.55085
2023-01-03T15:59:18.661Z,-99.06429
2023-01-03T16:04:19.745Z,-99.59691
2023-01-03T16:09:20.725Z,-99.22607
2023-01-03T16:14:21.735Z,-99.19041
2023-01-03T16:19:22.703Z,-99.16846
2023-01-03T16:24:23.647Z,-99.23551
2023-01-03T16:29:24.605Z,-98.76632
2023-01-03T16:34:30.224Z,-98.78937
2023-01-03T16:39:34.478Z,-98.81865
2023-01-03T16:44:35.421Z,-99.08809
2023-01-03T16:49:36.347Z,-99.54017
2023-01-03T16:54:37.287Z,-99.59673
2023-01-03T16:59:38.331Z,-99.64603
2023-01-03T17:04:39.304Z,-100.11201
2023-01-03T17:09:40.357Z,-100.33361
2023-01-03T17:14:41.354Z,-100.46968
2023-01-03T17:20:03.532Z,-100.72771
2023-01-03T17:25:05.545Z,-100.81329
2023-01-03T17:30:06.770Z,-100.86836
2023-01-03T17:35:07.762Z,-101.46029
2023-01-03T17:40:08.732Z,-101.93805
2023-01-03T17:45:09.744Z,-102.30221
2023-01-03T17:50:10.729Z,-102.07532
2023-01-03T17:55:11.648Z,-101.49798
2023-01-03T18:00:12.622Z,-101.77229
2023-01-03T18:05:17.548Z,-100.99507
2023-01-03T18:10:22.146Z,-101.28171
2023-01-03T18:15:23.127Z,-101.03788
2023-01-03T18:20:24.072Z,-100.57838
2023-01-03T18:25:25.079Z,-99.89441
2023-01-03T18:30:26.050Z,-99.44243
2023-01-03T18:35:32.524Z,-99.76773
2023-01-03T18:40:38.388Z,-99.8655
2023-01-03T18:45:39.394Z,-99.49507
2023-01-03T18:50:40.507Z,-98.97216
2023-01-03T18:55:41.661Z,-98.74063
2023-01-03T19:00:42.643Z,-98.86598
2023-01-03T19:05:43.680Z,-99.11452
2023-01-03T19:10:44.673Z,-99.45795
2023-01-03T19:15:46.103Z,-99.5838
2023-01-03T19:20:47.327Z,-99.7109
2023-01-03T19:25:48.314Z,-100.10944
2023-01-03T19:30:49.307Z,-99.57738
2023-01-03T19:35:50.254Z,-98.62634
2023-01-03T19:40:51.154Z,-97.83939
2023-01-03T19:45:52.120Z,-97.84454
2023-01-03T19:50:53.221Z,-97.10302
2023-01-03T19:55:54.341Z,-96.6542
2023-01-03T20:00:55.279Z,-96.55012
2023-01-03T20:05:56.223Z,-96.16244
2023-01-03T20:10:57.182Z,-96.00505
2023-01-03T20:15:58.207Z,-95.49042
2023-01-03T20:20:59.296Z,-95.52064
2023-01-03T20:26:00.659Z,-95.76008
2023-01-03T20:31:01.801Z,-94.90347
2023-01-03T20:36:22.580Z,-94.43876
2023-01-03T20:41:24.728Z,-94.76862
2023-01-03T20:46:25.726Z,-94.66368
2023-01-03T20:51:27.192Z,-94.28268
2023-01-03T20:56:28.465Z,-94.17294
2023-01-03T21:01:29.549Z,-93.76661
2023-01-03T21:06:30.637Z,-93.85666
2023-01-03T21:11:31.582Z,-93.74852
2023-01-03T21:16:32.738Z,-93.55247
2023-01-03T21:21:33.828Z,-93.40842
2023-01-03T21:26:34.801Z,-92.61902
2023-01-03T21:31:36.135Z,-91.98884
2023-01-03T21:36:37.197Z,-91.74616
2023-01-03T21:41:38.157Z,-91.118
2023-01-03T21:46:39.293Z,-91.41932
2023-01-03T21:51:40.258Z,-91.34548
2023-01-03T21:56:41.227Z,-91.44446
2023-01-03T22:01:47.504Z,-91.30072
2023-01-03T22:06:48.684Z,-91.1825
2023-01-03T22:11:49.651Z,-91.12022
2023-01-03T22:16:50.729Z,-91.26896
2023-01-03T22:21:51.734Z,-91.46342
2023-01-03T22:26:52.713Z,-90.74018
2023-01-03T22:31:53.783Z,-89.94735
2023-01-03T22:36:54.812Z,-89.50021
2023-01-03T22:41:56.047Z,-89.43262
2023-01-03T22:46:56.995Z,-89.48993
2023-01-03T22:51:58.066Z,-88.99006
2023-01-03T22:56:59.106Z,-88.43297
2023-01-03T23:02:00.263Z,-87.84062
2023-01-03T23:07:01.364Z,-88.03789
2023-01-03T23:12:02.383Z,-87.33983
2023-01-03T23:17:03.427Z,-86.58156
2023-01-03T23:22:04.401Z,-86.51856
2023-01-03T23:27:05.397Z,-85.9337
2023-01-03T23:32:06.314Z,-85.60458
2023-01-03T23:37:07.301Z,-84.48693
2023-01-03T23:42:08.210Z,-83.33406
2023-01-03T23:47:12.158Z,-83.14253
2023-01-03T23:52:13.768Z,-83.19396
2023-01-03T23:57:14.793Z,-82.57791
